Time;durP1;ratioP1;P1;durP2;ratioP2;P2;SDS_P1;SDS_P2;PMS_P1;PMS_P2;Temp;Humidity;BMP_temperature;BMP_pressure;BME280_temperature;BME280_humidity;BME280_pressure;Samples;Min_cycle;Max_cycle;Signal;HPM_P1;HPM_P2
2023/01/30 00:01:32;;;;;;;20.10;9.52;;;6.70;99.90;;;;;;5117499;27;20745;-78
2023/01/30 00:03:58;;;;;;;15.70;9.10;;;6.70;99.90;;;;;;5103896;27;20513;-78
2023/01/30 00:06:24;;;;;;;19.45;9.43;;;6.70;99.90;;;;;;5093024;28;20503;-78
2023/01/30 00:08:50;;;;;;;18.50;9.77;;;6.70;99.90;;;;;;5095472;27;20951;-78
2023/01/30 00:11:18;;;;;;;16.98;9.15;;;6.80;99.90;;;;;;5131287;27;20470;-78
2023/01/30 00:13:44;;;;;;;17.67;8.73;;;6.80;99.90;;;;;;5095910;27;20973;-78
2023/01/30 00:16:11;;;;;;;16.52;8.55;;;6.80;99.90;;;;;;5123201;27;20477;-78
2023/01/30 00:18:38;;;;;;;15.00;8.35;;;6.90;99.90;;;;;;5111147;27;20414;-78
2023/01/30 00:21:07;;;;;;;14.20;8.32;;;6.90;99.90;;;;;;5113091;27;20449;-78
2023/01/30 00:23:34;;;;;;;16.80;7.90;;;6.90;99.90;;;;;;5099145;27;20436;-78
2023/01/30 00:26:00;;;;;;;16.77;8.10;;;6.90;99.90;;;;;;5115812;27;20432;-78
2023/01/30 00:28:26;;;;;;;15.30;7.95;;;6.90;99.90;;;;;;5101301;27;20487;-78
2023/01/30 00:30:53;;;;;;;19.13;8.18;;;6.90;99.90;;;;;;5120013;27;20409;-78
2023/01/30 00:33:20;;;;;;;18.63;8.23;;;6.90;99.90;;;;;;5116843;27;20442;-78
2023/01/30 00:35:47;;;;;;;16.02;7.70;;;7.00;99.90;;;;;;5112608;27;20410;-78
2023/01/30 00:38:13;;;;;;;17.60;8.05;;;7.00;99.90;;;;;;5125923;27;20750;-78
2023/01/30 00:40:39;;;;;;;14.23;7.15;;;7.00;99.90;;;;;;5104505;27;21091;-78
2023/01/30 00:48:36;;;;;;;16.13;7.85;;;7.00;99.90;;;;;;5112228;27;20803;-77
2023/01/30 00:51:02;;;;;;;17.17;8.07;;;6.90;99.90;;;;;;5149768;27;20397;-77
2023/01/30 00:53:28;;;;;;;16.45;6.75;;;6.90;99.90;;;;;;5132310;27;20424;-78
2023/01/30 00:55:54;;;;;;;14.23;6.95;;;6.90;99.90;;;;;;5116763;27;20409;-78
2023/01/30 00:58:21;;;;;;;15.90;7.60;;;6.80;99.90;;;;;;5101512;27;20411;-78
2023/01/30 01:00:48;;;;;;;18.10;7.50;;;6.80;99.90;;;;;;5130785;27;20405;-78
2023/01/30 01:03:14;;;;;;;17.73;8.05;;;6.80;99.90;;;;;;5114124;27;20400;-78
2023/01/30 01:05:40;;;;;;;17.00;7.40;;;6.70;99.90;;;;;;5130782;27;20462;-80
2023/01/30 01:08:06;;;;;;;15.98;7.43;;;6.70;99.90;;;;;;5130639;27;20416;-78
2023/01/30 01:10:32;;;;;;;14.65;7.10;;;6.70;99.90;;;;;;5112945;27;20397;-81
2023/01/30 01:13:01;;;;;;;16.42;7.80;;;6.70;99.90;;;;;;5148413;27;20816;-81
2023/01/30 01:15:27;;;;;;;17.30;7.60;;;6.70;99.90;;;;;;5118157;27;20404;-81
2023/01/30 01:17:53;;;;;;;18.58;7.35;;;6.60;99.90;;;;;;5150423;27;20909;-78
2023/01/30 01:20:20;;;;;;;14.65;6.90;;;6.60;99.90;;;;;;5117662;27;20428;-79
2023/01/30 01:22:50;;;;;;;14.65;6.97;;;6.60;99.90;;;;;;5118294;27;20407;-79
2023/01/30 01:25:18;;;;;;;15.80;6.68;;;6.60;99.90;;;;;;5105482;27;20475;-78
2023/01/30 01:27:44;;;;;;;16.23;7.27;;;6.60;99.90;;;;;;5148523;27;20747;-78
2023/01/30 01:30:10;;;;;;;14.27;6.60;;;6.60;99.90;;;;;;5119027;27;20438;-78
2023/01/30 01:32:36;;;;;;;15.70;7.05;;;6.60;99.90;;;;;;5129360;27;20400;-78
2023/01/30 01:35:01;;;;;;;12.43;5.50;;;6.60;99.90;;;;;;5123686;27;20459;-78
2023/01/30 01:37:27;;;;;;;12.75;6.38;;;6.60;99.90;;;;;;5093681;27;20408;-78
2023/01/30 01:42:38;;;;;;;16.30;6.38;;;6.60;99.90;;;;;;5116701;27;20776;-79
2023/01/30 01:45:10;;;;;;;13.50;6.55;;;6.60;99.90;;;;;;5148702;27;20428;-78
2023/01/30 01:47:39;;;;;;;14.90;6.88;;;6.60;99.90;;;;;;5147479;27;20480;-79
2023/01/30 01:50:21;;;;;;;14.35;7.00;;;6.60;99.90;;;;;;5130996;27;20409;-78
2023/01/30 01:52:49;;;;;;;11.90;6.00;;;6.60;99.90;;;;;;5110598;27;20410;-78
2023/01/30 01:55:15;;;;;;;12.98;6.00;;;6.70;99.90;;;;;;5106193;27;20454;-78
2023/01/30 01:57:49;;;;;;;13.07;5.82;;;6.60;99.90;;;;;;5111068;27;20951;-78
2023/01/30 02:00:18;;;;;;;14.00;6.43;;;6.70;99.90;;;;;;5110458;27;20414;-78
2023/01/30 02:02:58;;;;;;;11.55;6.18;;;6.70;99.90;;;;;;5101998;27;20453;-78
2023/01/30 02:05:28;;;;;;;14.40;5.93;;;6.70;99.90;;;;;;5115954;27;20456;-79
2023/01/30 02:08:01;;;;;;;13.00;6.50;;;6.70;99.90;;;;;;5119704;27;20451;-78
2023/01/30 02:10:47;;;;;;;14.50;6.55;;;6.70;99.90;;;;;;5108424;27;20932;-78
2023/01/30 02:13:13;;;;;;;17.52;7.00;;;6.70;99.90;;;;;;5110318;27;20397;-78
2023/01/30 02:15:39;;;;;;;17.60;7.30;;;6.80;99.90;;;;;;5110832;27;20744;-78
2023/01/30 02:18:05;;;;;;;19.35;7.03;;;6.80;99.90;;;;;;5110413;27;20409;-78
2023/01/30 02:20:56;;;;;;;25.52;8.02;;;6.80;99.90;;;;;;5110254;27;20406;-78
2023/01/30 02:23:24;;;;;;;22.23;7.70;;;6.80;99.90;;;;;;5108237;27;20414;-78
2023/01/30 02:26:07;;;;;;;24.30;8.10;;;6.80;99.90;;;;;;5094932;27;20544;-78
2023/01/30 02:28:50;;;;;;;22.48;8.38;;;6.80;99.90;;;;;;5119308;27;20416;-79
2023/01/30 02:31:26;;;;;;;24.42;7.65;;;6.80;99.90;;;;;;5097896;28;20412;-79
2023/01/30 02:34:15;;;;;;;23.17;8.25;;;6.90;99.90;;;;;;5125825;27;20770;-79
2023/01/30 02:37:01;;;;;;;21.95;7.43;;;6.90;99.90;;;;;;5108370;27;20414;-79
2023/01/30 02:40:04;;;;;;;25.98;7.30;;;6.90;99.90;;;;;;5118828;28;20419;-78
2023/01/30 02:43:11;;;;;;;22.98;6.88;;;6.90;99.90;;;;;;5098872;28;20496;-79
2023/01/30 02:45:54;;;;;;;24.87;6.77;;;7.00;99.90;;;;;;5090490;28;20507;-78
2023/01/30 02:48:26;;;;;;;30.25;7.07;;;6.90;99.90;;;;;;5085672;28;20785;-78
2023/01/30 02:51:02;;;;;;;22.43;5.90;;;6.90;99.90;;;;;;5086460;28;20460;-79
2023/01/30 02:53:35;;;;;;;25.17;6.17;;;6.90;99.90;;;;;;5073015;28;20471;-78
2023/01/30 02:56:00;;;;;;;22.58;6.07;;;6.90;99.90;;;;;;5095678;28;20920;-79
2023/01/30 02:58:33;;;;;;;21.00;6.23;;;6.90;99.90;;;;;;5103085;28;20403;-78
2023/01/30 03:01:19;;;;;;;23.65;6.20;;;6.90;99.90;;;;;;5091789;28;20481;-79
2023/01/30 03:04:01;;;;;;;19.87;5.60;;;7.00;99.90;;;;;;5073472;28;20474;-79
2023/01/30 03:06:51;;;;;;;20.50;4.78;;;7.00;99.90;;;;;;5090268;28;20406;-78
2023/01/30 03:09:30;;;;;;;19.20;5.00;;;7.00;99.90;;;;;;5090216;28;20446;-79
2023/01/30 03:12:47;;;;;;;21.13;4.72;;;7.00;99.90;;;;;;5086385;28;20407;-79
2023/01/30 03:15:22;;;;;;;19.63;4.57;;;7.00;99.90;;;;;;5044614;28;20470;-78
2023/01/30 03:17:48;;;;;;;24.95;5.50;;;7.00;99.90;;;;;;5086321;28;20503;-78
2023/01/30 03:20:15;;;;;;;23.85;5.03;;;7.00;99.90;;;;;;5090278;28;20484;-78
2023/01/30 03:22:41;;;;;;;20.07;4.00;;;7.00;99.90;;;;;;5072614;28;20417;-78
2023/01/30 03:25:07;;;;;;;24.50;4.37;;;7.00;99.90;;;;;;5106308;28;20433;-78
2023/01/30 03:27:34;;;;;;;18.08;4.18;;;6.90;99.90;;;;;;5073298;28;20492;-79
2023/01/30 03:30:00;;;;;;;26.90;5.82;;;7.00;99.90;;;;;;5090449;28;20828;-79
2023/01/30 03:32:25;;;;;;;23.50;4.83;;;6.90;99.90;;;;;;5088559;28;20404;-79
2023/01/30 03:34:51;;;;;;;26.00;5.10;;;6.90;99.90;;;;;;5085296;28;20403;-79
2023/01/30 03:37:17;;;;;;;22.40;4.07;;;6.90;99.90;;;;;;5080916;28;20406;-78
2023/01/30 03:39:42;;;;;;;28.45;4.95;;;6.90;99.90;;;;;;5091236;28;20477;-79
2023/01/30 03:42:08;;;;;;;19.83;3.90;;;6.80;99.90;;;;;;5093398;28;20766;-78
2023/01/30 03:44:34;;;;;;;21.20;4.40;;;6.80;99.90;;;;;;5094172;27;20423;-79
2023/01/30 03:46:59;;;;;;;23.07;4.20;;;6.80;99.90;;;;;;5113213;27;20423;-79
2023/01/30 03:49:25;;;;;;;24.65;4.35;;;6.80;99.90;;;;;;5116809;27;20397;-78
2023/01/30 03:51:51;;;;;;;29.20;5.20;;;6.80;99.90;;;;;;5100987;28;20450;-78
2023/01/30 03:54:16;;;;;;;23.00;4.32;;;6.70;99.90;;;;;;5103970;27;20433;-78
2023/01/30 03:56:42;;;;;;;21.60;4.40;;;6.70;99.90;;;;;;5122823;27;20911;-78
2023/01/30 03:59:07;;;;;;;22.33;4.03;;;6.70;99.90;;;;;;5125174;27;20405;-78
2023/01/30 04:01:33;;;;;;;18.92;4.40;;;6.60;99.90;;;;;;5088890;28;20420;-78
2023/01/30 04:03:59;;;;;;;24.07;4.37;;;6.60;99.90;;;;;;5106395;27;20394;-78
2023/01/30 04:06:24;;;;;;;24.52;4.95;;;6.60;99.90;;;;;;5108637;27;20400;-78
2023/01/30 04:08:53;;;;;;;26.60;4.50;;;6.60;99.90;;;;;;5132871;27;20401;-78
2023/01/30 04:11:19;;;;;;;28.80;5.18;;;6.60;99.90;;;;;;5132768;27;20473;-78
2023/01/30 04:13:45;;;;;;;25.73;4.30;;;6.60;99.90;;;;;;5114465;27;20405;-78
2023/01/30 04:16:29;;;;;;;30.15;5.53;;;6.60;99.90;;;;;;5117567;27;20410;-78
2023/01/30 04:18:54;;;;;;;31.73;5.05;;;6.60;99.90;;;;;;5112422;27;20410;-78
2023/01/30 04:21:20;;;;;;;23.77;4.57;;;6.60;99.90;;;;;;5112655;27;20756;-78
2023/01/30 04:23:46;;;;;;;30.20;4.97;;;6.50;99.90;;;;;;5112272;27;20398;-78
2023/01/30 04:26:12;;;;;;;29.02;4.72;;;6.50;99.90;;;;;;5095445;27;20783;-78
2023/01/30 04:28:39;;;;;;;30.35;4.40;;;6.50;99.90;;;;;;5095347;27;20418;-78
2023/01/30 04:31:05;;;;;;;30.10;5.30;;;6.40;99.90;;;;;;5111842;27;20434;-79
2023/01/30 04:33:34;;;;;;;24.80;4.97;;;6.30;99.90;;;;;;5112282;27;20748;-79
2023/01/30 04:36:02;;;;;;;26.27;4.23;;;6.30;99.90;;;;;;5116189;27;21240;-79
2023/01/30 04:38:29;;;;;;;27.48;4.57;;;6.20;99.90;;;;;;5103552;27;20493;-79
2023/01/30 04:40:56;;;;;;;33.80;6.13;;;6.20;99.90;;;;;;5115697;27;20407;-79
2023/01/30 04:43:23;;;;;;;28.65;4.68;;;6.10;99.90;;;;;;5102934;27;20481;-79
2023/01/30 04:45:50;;;;;;;25.75;4.25;;;6.10;99.90;;;;;;5128250;27;20843;-79
2023/01/30 04:48:17;;;;;;;31.15;5.95;;;6.00;99.90;;;;;;5119944;27;20399;-78
2023/01/30 04:50:45;;;;;;;25.60;4.28;;;6.00;99.90;;;;;;5128395;27;20405;-79
2023/01/30 04:53:11;;;;;;;29.43;5.37;;;6.00;99.90;;;;;;5131267;27;20408;-78
2023/01/30 04:55:37;;;;;;;25.63;4.10;;;6.10;99.90;;;;;;5112570;27;20406;-78
2023/01/30 04:58:02;;;;;;;29.23;4.95;;;6.10;99.90;;;;;;5106922;27;20403;-78
2023/01/30 05:00:28;;;;;;;28.67;4.53;;;6.20;99.90;;;;;;5116906;27;20408;-78
2023/01/30 05:02:57;;;;;;;29.30;4.83;;;6.20;99.90;;;;;;5119149;27;20982;-78
2023/01/30 05:05:24;;;;;;;26.50;5.20;;;6.20;99.90;;;;;;5124012;27;20430;-78
2023/01/30 05:07:50;;;;;;;24.50;4.47;;;6.30;99.90;;;;;;5142282;27;20397;-78
2023/01/30 05:10:16;;;;;;;30.80;4.90;;;6.30;99.90;;;;;;5095583;27;20405;-78
2023/01/30 05:12:43;;;;;;;27.17;5.10;;;6.30;99.90;;;;;;5124794;27;20484;-78
2023/01/30 05:15:09;;;;;;;26.55;4.25;;;6.30;99.90;;;;;;5117761;27;20397;-78
2023/01/30 05:17:35;;;;;;;30.38;5.13;;;6.30;99.90;;;;;;5131748;27;20408;-78
2023/01/30 05:20:01;;;;;;;28.40;4.60;;;6.30;99.90;;;;;;5123877;27;20436;-78
2023/01/30 05:22:27;;;;;;;25.57;4.70;;;6.30;99.90;;;;;;5111866;27;20589;-78
2023/01/30 05:24:52;;;;;;;27.65;4.95;;;6.30;99.90;;;;;;5111733;27;20437;-79
2023/01/30 05:27:18;;;;;;;24.93;4.93;;;6.30;99.90;;;;;;5111318;27;20405;-78
2023/01/30 05:29:43;;;;;;;26.15;4.45;;;6.30;99.90;;;;;;5094168;27;20405;-78
2023/01/30 05:32:17;;;;;;;27.33;4.35;;;6.30;99.90;;;;;;5094268;27;20406;-78
2023/01/30 05:34:43;;;;;;;26.38;4.07;;;6.20;99.90;;;;;;5141102;27;20403;-78
2023/01/30 05:37:09;;;;;;;25.95;3.72;;;6.20;99.90;;;;;;5124116;27;20420;-78
2023/01/30 05:39:35;;;;;;;25.90;4.70;;;6.20;99.90;;;;;;5123773;27;20427;-78
2023/01/30 05:42:01;;;;;;;28.20;4.93;;;6.20;99.90;;;;;;5123246;27;20429;-78
2023/01/30 05:44:26;;;;;;;27.58;4.78;;;6.20;99.90;;;;;;5128379;27;20475;-78
2023/01/30 05:46:52;;;;;;;27.83;5.03;;;6.10;99.90;;;;;;5117133;27;20398;-78
2023/01/30 05:49:17;;;;;;;25.37;4.67;;;6.10;99.90;;;;;;5127976;27;20409;-78
2023/01/30 05:51:43;;;;;;;25.45;4.70;;;6.10;99.90;;;;;;5099163;27;20826;-78
2023/01/30 05:54:09;;;;;;;34.33;5.33;;;6.10;99.90;;;;;;5126696;27;20401;-78
2023/01/30 05:56:34;;;;;;;29.23;5.35;;;6.10;99.90;;;;;;5127520;27;20484;-78
2023/01/30 05:59:01;;;;;;;30.15;5.28;;;6.10;99.90;;;;;;5115029;27;20389;-78
2023/01/30 06:01:28;;;;;;;26.67;4.50;;;6.10;99.90;;;;;;5117193;27;20398;-78
2023/01/30 06:03:54;;;;;;;25.55;4.18;;;6.10;99.90;;;;;;5125477;27;20530;-78
2023/01/30 06:06:21;;;;;;;26.15;4.55;;;6.10;99.90;;;;;;5103090;27;20591;-78
2023/01/30 06:08:47;;;;;;;26.02;3.78;;;6.10;99.90;;;;;;5110945;27;20741;-78
2023/01/30 06:11:17;;;;;;;27.02;4.63;;;6.10;99.90;;;;;;5089913;28;20412;-78
2023/01/30 06:13:43;;;;;;;23.92;4.57;;;6.10;99.90;;;;;;5094011;27;20402;-78
2023/01/30 06:16:10;;;;;;;26.65;4.15;;;6.20;99.90;;;;;;5110125;27;20406;-78
2023/01/30 06:18:37;;;;;;;23.23;4.22;;;6.30;99.90;;;;;;5110480;27;20406;-78
2023/01/30 06:21:02;;;;;;;27.73;4.88;;;6.30;99.90;;;;;;5111328;27;20453;-78
2023/01/30 06:23:28;;;;;;;25.70;4.85;;;6.30;99.90;;;;;;5130435;27;20428;-78
2023/01/30 06:25:54;;;;;;;26.87;5.00;;;6.20;99.90;;;;;;5131645;27;20468;-77
2023/01/30 06:28:21;;;;;;;33.40;5.45;;;6.20;99.90;;;;;;5094015;27;20504;-79
2023/01/30 06:30:47;;;;;;;31.90;4.82;;;6.10;99.90;;;;;;5110079;28;20963;-78
2023/01/30 06:33:13;;;;;;;27.45;4.57;;;6.10;99.90;;;;;;5110618;28;20405;-79
2023/01/30 06:35:40;;;;;;;31.33;5.15;;;6.00;99.90;;;;;;5110107;27;20410;-78
2023/01/30 06:38:10;;;;;;;27.58;5.30;;;6.00;99.90;;;;;;5110449;28;20417;-79
2023/01/30 06:40:36;;;;;;;26.33;4.32;;;6.00;99.90;;;;;;5093037;28;20418;-78
2023/01/30 06:43:02;;;;;;;27.55;5.30;;;6.00;99.90;;;;;;5104058;28;20418;-80
2023/01/30 06:45:28;;;;;;;28.92;5.00;;;6.00;99.90;;;;;;5106630;27;20792;-80
2023/01/30 06:47:54;;;;;;;26.73;4.60;;;6.00;99.90;;;;;;5101243;27;20420;-80
2023/01/30 06:50:23;;;;;;;26.10;4.47;;;6.00;99.90;;;;;;5126053;27;20405;-80
2023/01/30 06:52:50;;;;;;;33.42;5.35;;;6.00;99.90;;;;;;5116625;28;20927;-80
2023/01/30 06:55:18;;;;;;;26.23;4.72;;;6.10;99.90;;;;;;5126894;27;20389;-80
2023/01/30 06:57:44;;;;;;;22.45;4.32;;;6.00;99.90;;;;;;5119095;28;20407;-80
2023/01/30 07:00:13;;;;;;;22.60;4.38;;;6.10;99.90;;;;;;5098948;28;20532;-79
2023/01/30 07:02:39;;;;;;;24.70;4.75;;;6.10;99.90;;;;;;5114659;27;20452;-80
2023/01/30 07:05:06;;;;;;;28.35;5.13;;;6.10;99.90;;;;;;5118553;28;20457;-80
2023/01/30 07:07:33;;;;;;;28.42;5.10;;;6.10;99.90;;;;;;5107850;28;20447;-79
2023/01/30 07:09:58;;;;;;;30.45;5.25;;;6.10;99.90;;;;;;5110123;28;20397;-78
2023/01/30 07:12:25;;;;;;;22.93;3.77;;;6.10;99.90;;;;;;5119845;27;20417;-79
2023/01/30 07:14:52;;;;;;;25.83;4.72;;;6.10;99.90;;;;;;5104365;28;20461;-79
2023/01/30 07:17:18;;;;;;;30.65;5.60;;;6.10;99.90;;;;;;5108740;28;20418;-78
2023/01/30 07:19:44;;;;;;;27.77;5.20;;;6.10;99.90;;;;;;5120496;27;20440;-79
2023/01/30 07:22:10;;;;;;;28.35;4.53;;;6.20;99.90;;;;;;5127343;27;20488;-79
2023/01/30 07:24:37;;;;;;;26.88;5.32;;;6.20;99.90;;;;;;5110641;28;20518;-79
2023/01/30 07:27:03;;;;;;;31.60;5.20;;;6.20;99.90;;;;;;5120513;28;20408;-79
2023/01/30 07:29:28;;;;;;;23.50;4.32;;;6.20;99.90;;;;;;5119693;27;20766;-79
2023/01/30 07:31:54;;;;;;;23.73;4.40;;;6.20;99.90;;;;;;5124695;27;20985;-79
2023/01/30 07:34:20;;;;;;;25.65;4.45;;;6.30;99.90;;;;;;5117688;28;20532;-79
2023/01/30 07:36:45;;;;;;;26.98;4.65;;;6.30;99.90;;;;;;5096744;27;20405;-79
2023/01/30 07:39:11;;;;;;;28.20;5.40;;;6.30;99.90;;;;;;5148486;27;20401;-79
2023/01/30 07:41:36;;;;;;;23.95;4.50;;;6.30;99.90;;;;;;5111991;27;21469;-79
2023/01/30 07:44:02;;;;;;;24.43;4.90;;;6.30;99.90;;;;;;5123508;27;20416;-79
2023/01/30 07:46:33;;;;;;;25.27;4.00;;;6.30;99.90;;;;;;5137232;27;20420;-79
2023/01/30 07:49:00;;;;;;;25.92;5.60;;;6.20;99.90;;;;;;5132712;27;20525;-79
2023/01/30 07:51:27;;;;;;;27.08;5.00;;;6.30;99.90;;;;;;5114554;27;20874;-79
2023/01/30 07:53:52;;;;;;;27.05;4.60;;;6.30;99.90;;;;;;5151248;27;20913;-79
2023/01/30 07:56:20;;;;;;;32.70;5.50;;;6.30;99.90;;;;;;5130979;27;20405;-79
2023/01/30 07:58:46;;;;;;;28.80;5.27;;;6.30;99.90;;;;;;5120722;27;20764;-79
2023/01/30 08:01:12;;;;;;;24.37;5.00;;;6.30;99.90;;;;;;5096216;27;20399;-79
2023/01/30 08:03:37;;;;;;;29.73;4.60;;;6.30;99.90;;;;;;5143037;27;20389;-79
2023/01/30 08:06:03;;;;;;;24.83;4.63;;;6.30;99.90;;;;;;5118403;27;20424;-79
2023/01/30 08:08:29;;;;;;;28.63;5.23;;;6.40;99.90;;;;;;5132512;27;20857;-79
2023/01/30 08:10:54;;;;;;;29.17;5.28;;;6.40;99.90;;;;;;5131305;27;20429;-79
2023/01/30 08:13:20;;;;;;;24.83;4.70;;;6.40;99.90;;;;;;5132227;27;20459;-79
2023/01/30 08:15:46;;;;;;;28.88;4.93;;;6.50;99.90;;;;;;5149560;27;20397;-79
2023/01/30 08:18:11;;;;;;;27.55;5.13;;;6.50;99.90;;;;;;5150282;27;20397;-79
2023/01/30 08:20:37;;;;;;;30.23;6.77;;;6.50;99.90;;;;;;5117337;27;20492;-79
2023/01/30 08:23:03;;;;;;;27.98;4.75;;;6.50;99.90;;;;;;5150749;27;20408;-79
2023/01/30 08:25:28;;;;;;;23.55;3.95;;;6.50;99.90;;;;;;5129192;27;20421;-79
2023/01/30 08:27:54;;;;;;;23.37;5.30;;;6.60;99.90;;;;;;5131181;27;20405;-78
2023/01/30 08:30:21;;;;;;;23.03;4.80;;;6.60;99.90;;;;;;5129673;27;20770;-79
2023/01/30 08:32:47;;;;;;;26.52;4.93;;;6.60;99.90;;;;;;5131753;27;20432;-79
2023/01/30 08:35:13;;;;;;;25.58;4.68;;;6.60;99.90;;;;;;5113975;27;20429;-79
2023/01/30 08:37:40;;;;;;;35.40;5.60;;;6.60;99.90;;;;;;5112722;27;20484;-79
2023/01/30 08:40:07;;;;;;;26.63;4.97;;;6.60;99.90;;;;;;5094342;27;20498;-79
2023/01/30 08:42:32;;;;;;;27.70;5.45;;;6.70;99.90;;;;;;5123891;27;20982;-79
2023/01/30 08:44:58;;;;;;;27.23;4.57;;;6.70;99.90;;;;;;5136430;27;20503;-79
2023/01/30 08:47:24;;;;;;;26.43;4.40;;;6.80;99.90;;;;;;5132817;27;20409;-80
2023/01/30 08:49:51;;;;;;;29.65;4.32;;;6.80;99.90;;;;;;5113083;27;20402;-79
2023/01/30 08:52:18;;;;;;;27.77;4.50;;;6.80;99.90;;;;;;5112204;27;20398;-79
2023/01/30 08:54:43;;;;;;;25.20;4.32;;;6.80;99.90;;;;;;5127746;27;20406;-79
2023/01/30 08:57:09;;;;;;;30.50;5.50;;;6.80;99.90;;;;;;5123290;27;20863;-79
2023/01/30 08:59:35;;;;;;;25.17;4.63;;;6.90;99.90;;;;;;5127960;27;20467;-79
2023/01/30 09:02:00;;;;;;;24.77;4.20;;;6.90;99.90;;;;;;5148609;27;20405;-79
2023/01/30 09:04:29;;;;;;;26.53;4.30;;;7.00;99.90;;;;;;5115645;27;20766;-79
2023/01/30 09:06:54;;;;;;;24.83;4.63;;;7.00;99.90;;;;;;5119722;27;20402;-79
2023/01/30 09:09:20;;;;;;;28.83;5.03;;;7.00;99.90;;;;;;5111953;27;20410;-79
2023/01/30 09:11:49;;;;;;;25.73;4.82;;;7.00;99.90;;;;;;5122183;27;20784;-79
2023/01/30 09:14:18;;;;;;;24.15;4.97;;;7.00;99.90;;;;;;5115782;27;20476;-79
2023/01/30 09:16:45;;;;;;;25.50;4.53;;;7.00;99.90;;;;;;5118403;27;20418;-79
2023/01/30 09:19:11;;;;;;;27.33;5.60;;;7.00;99.90;;;;;;5128162;27;20410;-78
2023/01/30 09:21:37;;;;;;;27.87;5.07;;;7.00;99.90;;;;;;5105537;27;20468;-79
2023/01/30 09:24:04;;;;;;;28.00;5.60;;;7.00;99.90;;;;;;5115777;27;20568;-79
2023/01/30 09:26:30;;;;;;;27.77;5.47;;;7.00;99.90;;;;;;5111173;27;20428;-79
2023/01/30 09:28:55;;;;;;;26.87;4.93;;;7.10;99.90;;;;;;5115882;27;20453;-79
2023/01/30 09:31:21;;;;;;;23.37;4.63;;;7.10;99.90;;;;;;5127813;27;20779;-79
2023/01/30 09:33:46;;;;;;;26.20;4.70;;;7.10;99.90;;;;;;5105088;28;20774;-79
2023/01/30 09:36:12;;;;;;;27.77;5.17;;;7.10;99.90;;;;;;5103798;27;20406;-79
2023/01/30 09:38:38;;;;;;;23.35;4.55;;;7.10;99.90;;;;;;5110983;27;20405;-79
2023/01/30 09:41:21;;;;;;;26.60;5.00;;;7.10;99.90;;;;;;5129798;27;20940;-79
2023/01/30 09:44:07;;;;;;;25.80;5.03;;;7.20;99.90;;;;;;5099902;27;20442;-79
2023/01/30 09:47:00;;;;;;;33.92;5.97;;;7.30;99.90;;;;;;5125684;27;20432;-79
2023/01/30 09:50:18;;;;;;;36.40;6.38;;;7.30;99.90;;;;;;5115522;27;20403;-79
2023/01/30 09:52:58;;;;;;;28.50;5.80;;;7.30;99.90;;;;;;5094206;27;20484;-79
2023/01/30 09:55:28;;;;;;;33.75;5.15;;;7.20;99.90;;;;;;5129073;27;20431;-79
2023/01/30 09:57:57;;;;;;;29.13;5.25;;;7.20;99.90;;;;;;5128003;27;20397;-79
2023/01/30 10:00:43;;;;;;;28.48;5.10;;;7.20;99.90;;;;;;5137833;27;20391;-79
2023/01/30 10:03:17;;;;;;;34.17;6.00;;;7.10;99.90;;;;;;5127955;27;20456;-79
2023/01/30 10:05:48;;;;;;;33.50;5.63;;;7.10;99.90;;;;;;5109539;27;20433;-78
2023/01/30 10:08:38;;;;;;;24.02;4.70;;;7.00;99.90;;;;;;5118855;27;20397;-79
2023/01/30 10:11:16;;;;;;;26.77;5.00;;;7.00;99.90;;;;;;5122248;27;21104;-79
2023/01/30 10:14:19;;;;;;;29.25;5.85;;;7.10;99.90;;;;;;5109760;27;21010;-79
2023/01/30 10:17:03;;;;;;;30.23;6.43;;;7.20;99.90;;;;;;5141033;27;20471;-79
2023/01/30 10:19:41;;;;;;;22.85;4.78;;;7.30;99.90;;;;;;5099729;27;20984;-79
2023/01/30 10:22:25;;;;;;;30.13;5.88;;;7.40;99.90;;;;;;5125140;27;20932;-78
2023/01/30 10:24:57;;;;;;;25.42;5.05;;;7.60;99.90;;;;;;5147847;27;20503;-78
2023/01/30 10:27:26;;;;;;;29.60;5.60;;;7.70;99.90;;;;;;5091362;28;20414;-79
2023/01/30 10:29:55;;;;;;;30.53;6.00;;;7.70;99.90;;;;;;5121257;27;20397;-78
2023/01/30 10:32:30;;;;;;;23.27;5.13;;;7.60;99.90;;;;;;5127346;27;20397;-78
2023/01/30 10:35:05;;;;;;;26.53;4.80;;;7.50;99.90;;;;;;5113676;27;20423;-79
2023/01/30 10:38:26;;;;;;;30.35;4.72;;;7.30;99.90;;;;;;5110600;28;20406;-79
2023/01/30 10:41:13;;;;;;;21.40;3.85;;;7.10;99.90;;;;;;5091418;28;20418;-79
2023/01/30 10:43:44;;;;;;;28.03;4.93;;;7.50;99.90;;;;;;5097694;28;20915;-79
2023/01/30 10:46:29;;;;;;;21.88;4.10;;;8.30;99.90;;;;;;5110048;27;20422;-79
2023/01/30 10:49:12;;;;;;;19.63;3.65;;;8.90;99.90;;;;;;5096131;28;20407;-79
2023/01/30 10:51:59;;;;;;;17.10;3.05;;;9.40;99.90;;;;;;5092592;28;20768;-77
2023/01/30 10:54:32;;;;;;;18.98;3.28;;;9.80;99.90;;;;;;5092400;28;20430;-78
2023/01/30 10:57:12;;;;;;;17.77;3.28;;;10.10;99.90;;;;;;5110746;28;20784;-78
2023/01/30 11:00:01;;;;;;;15.10;2.43;;;10.20;99.90;;;;;;5093329;28;20437;-77
2023/01/30 11:03:06;;;;;;;18.38;3.13;;;10.40;99.90;;;;;;5109683;28;20409;-78
2023/01/30 11:05:51;;;;;;;14.87;2.40;;;10.50;99.90;;;;;;5093973;27;20426;-78
2023/01/30 11:08:20;;;;;;;17.17;3.03;;;10.60;99.90;;;;;;5094477;28;20586;-77
2023/01/30 11:10:47;;;;;;;17.63;2.60;;;10.70;99.90;;;;;;5093371;28;20419;-78
2023/01/30 11:13:23;;;;;;;21.67;4.27;;;10.90;99.90;;;;;;5074155;28;20877;-77
2023/01/30 11:15:54;;;;;;;23.38;4.05;;;10.80;99.90;;;;;;5107087;28;20420;-77
2023/01/30 11:18:21;;;;;;;23.60;4.03;;;10.60;99.90;;;;;;5102038;28;20426;-78
2023/01/30 11:21:15;;;;;;;21.58;4.25;;;10.70;99.90;;;;;;5114711;27;20413;-77
2023/01/30 11:23:42;;;;;;;19.90;3.97;;;11.00;99.90;;;;;;5122967;27;20462;-77
2023/01/30 11:26:20;;;;;;;23.55;4.13;;;10.60;99.90;;;;;;5093098;28;20435;-77
2023/01/30 11:28:45;;;;;;;21.55;4.00;;;9.90;99.90;;;;;;5113145;27;20433;-77
2023/01/30 11:31:26;;;;;;;23.90;4.37;;;9.30;99.90;;;;;;5131790;27;20430;-77
2023/01/30 11:34:00;;;;;;;22.08;4.10;;;8.80;99.90;;;;;;5093158;28;20415;-77
2023/01/30 11:36:31;;;;;;;19.25;3.53;;;8.50;99.90;;;;;;5107590;27;20904;-77
2023/01/30 11:39:02;;;;;;;16.70;2.78;;;8.20;99.90;;;;;;5113466;27;20434;-77
2023/01/30 11:41:29;;;;;;;18.02;3.42;;;8.10;99.90;;;;;;5113196;27;20541;-77
2023/01/30 11:44:03;;;;;;;17.85;3.30;;;8.00;99.90;;;;;;5113836;27;20406;-77
2023/01/30 11:46:38;;;;;;;18.80;3.60;;;8.00;99.90;;;;;;5112781;27;20422;-77
2023/01/30 11:49:14;;;;;;;19.48;3.45;;;7.90;99.90;;;;;;5096580;27;20390;-77
2023/01/30 11:51:43;;;;;;;18.63;3.25;;;7.90;99.90;;;;;;5131269;27;20430;-77
2023/01/30 11:54:25;;;;;;;22.38;4.28;;;7.90;99.90;;;;;;5118209;27;20431;-78
2023/01/30 11:56:54;;;;;;;19.45;3.72;;;8.00;99.90;;;;;;5101934;27;20399;-77
2023/01/30 11:59:29;;;;;;;25.03;4.60;;;8.60;99.90;;;;;;5126675;27;20471;-78
2023/01/30 12:02:04;;;;;;;23.08;4.88;;;8.80;99.90;;;;;;5103913;27;20417;-78
2023/01/30 12:04:30;;;;;;;24.20;4.53;;;8.70;99.90;;;;;;5109410;27;20408;-78
2023/01/30 12:07:30;;;;;;;29.00;4.82;;;8.70;99.90;;;;;;5148579;27;20416;-77
2023/01/30 12:09:59;;;;;;;25.17;5.07;;;8.70;99.90;;;;;;5111074;27;20414;-77
2023/01/30 12:12:28;;;;;;;21.20;4.50;;;8.60;99.90;;;;;;5132160;27;20973;-77
2023/01/30 12:15:15;;;;;;;22.13;4.10;;;8.70;99.90;;;;;;5149439;27;20616;-77
2023/01/30 12:17:56;;;;;;;26.00;4.88;;;8.70;99.90;;;;;;5105881;27;20962;-78
2023/01/30 12:21:03;;;;;;;21.55;4.60;;;8.70;99.90;;;;;;5141643;27;20399;-78
2023/01/30 12:23:52;;;;;;;27.87;4.77;;;8.60;99.90;;;;;;5136579;27;20397;-78
2023/01/30 12:26:25;;;;;;;21.17;3.97;;;8.60;99.90;;;;;;5082126;27;20806;-79
2023/01/30 12:29:06;;;;;;;27.13;4.88;;;8.70;99.90;;;;;;5115544;27;20488;-78
2023/01/30 12:31:45;;;;;;;25.33;4.72;;;8.80;99.90;;;;;;5128207;27;20415;-78
2023/01/30 12:34:11;;;;;;;30.08;4.80;;;8.90;99.90;;;;;;5112481;27;20403;-78
2023/01/30 12:36:58;;;;;;;26.05;4.82;;;9.00;99.90;;;;;;5130245;27;20409;-78
2023/01/30 12:39:55;;;;;;;26.90;4.30;;;8.90;99.90;;;;;;5143441;27;21023;-78
2023/01/30 12:42:52;;;;;;;27.08;4.82;;;8.90;99.90;;;;;;5130599;27;20794;-78
2023/01/30 12:45:25;;;;;;;28.38;5.20;;;9.00;99.90;;;;;;5114734;27;20851;-78
2023/01/30 12:48:28;;;;;;;31.25;5.25;;;9.10;99.90;;;;;;5118459;27;21121;-78
2023/01/30 12:51:27;;;;;;;23.80;4.60;;;9.10;99.90;;;;;;5118395;27;20412;-78
2023/01/30 12:54:10;;;;;;;28.20;4.93;;;9.20;99.90;;;;;;5103585;27;20425;-78
2023/01/30 12:57:17;;;;;;;26.30;4.80;;;9.30;99.90;;;;;;5105936;27;20417;-78
2023/01/30 13:00:08;;;;;;;26.35;4.63;;;9.40;99.90;;;;;;5130819;27;20479;-79
2023/01/30 13:03:11;;;;;;;25.17;5.13;;;9.30;99.90;;;;;;5111720;27;21045;-78
2023/01/30 13:06:09;;;;;;;27.13;5.20;;;9.10;99.90;;;;;;5131196;27;20418;-78
2023/01/30 13:09:25;;;;;;;25.17;5.53;;;8.80;99.90;;;;;;5111529;27;20410;-78
2023/01/30 13:12:05;;;;;;;31.20;5.97;;;8.70;99.90;;;;;;5046702;28;20417;-78
2023/01/30 13:14:51;;;;;;;29.17;4.72;;;8.50;99.90;;;;;;5104125;27;20406;-78
2023/01/30 13:17:32;;;;;;;31.77;5.70;;;8.40;99.90;;;;;;5112685;27;20810;-77